Time;durP1;ratioP1;P1;durP2;ratioP2;P2;SDS_P1;SDS_P2;PMS_P1;PMS_P2;Temp;Humidity;BMP_temperature;BMP_pressure;BME280_temperature;BME280_humidity;BME280_pressure;Samples;Min_cycle;Max_cycle;Signal;HPM_P1;HPM_P2
2022/07/19 00:01:50;;;;;;;7.32;3.50;;;;;;;;;;4988109;28;20061;-62
2022/07/19 00:04:16;;;;;;;6.30;3.25;;;;;;;;;;4969662;28;20066;-63
2022/07/19 00:06:43;;;;;;;7.05;3.45;;;;;;;;;;4973025;28;20051;-63
2022/07/19 00:09:10;;;;;;;6.68;3.35;;;;;;;;;;4970105;28;20046;-62
2022/07/19 00:11:36;;;;;;;6.20;3.05;;;;;;;;;;4990834;28;20066;-63
2022/07/19 00:14:03;;;;;;;5.95;3.08;;;;;;;;;;4976439;28;20065;-62
2022/07/19 00:16:31;;;;;;;6.20;3.20;;;;;;;;;;4970499;28;20062;-62
2022/07/19 00:18:58;;;;;;;8.75;3.38;;;;;;;;;;4968703;28;20077;-63
2022/07/19 00:21:24;;;;;;;6.50;3.25;;;;;;;;;;5003115;28;20054;-64
2022/07/19 00:23:51;;;;;;;5.97;3.47;;;;;;;;;;5009146;28;20080;-63
2022/07/19 00:26:17;;;;;;;6.50;3.30;;;;;;;;;;5003409;28;20057;-63
2022/07/19 00:28:44;;;;;;;8.82;3.85;;;;;;;;;;5009279;28;20133;-62
2022/07/19 00:31:11;;;;;;;6.65;3.15;;;;;;;;;;4988651;28;20062;-62
2022/07/19 00:33:39;;;;;;;7.63;3.17;;;;;;;;;;4989865;28;20062;-62
2022/07/19 00:36:05;;;;;;;6.90;3.33;;;;;;;;;;4984969;28;20073;-62
2022/07/19 00:38:33;;;;;;;6.03;3.20;;;;;;;;;;4989883;28;20062;-62
2022/07/19 00:41:01;;;;;;;10.13;3.00;;;;;;;;;;4984495;28;20058;-62
2022/07/19 00:43:28;;;;;;;6.93;3.13;;;;;;;;;;4989862;28;20046;-62
2022/07/19 00:45:55;;;;;;;7.25;3.00;;;;;;;;;;4984168;28;20050;-62
2022/07/19 00:48:21;;;;;;;5.18;2.97;;;;;;;;;;4989586;28;20051;-62
2022/07/19 00:50:49;;;;;;;7.55;2.90;;;;;;;;;;4983892;28;20066;-63
2022/07/19 00:53:16;;;;;;;6.18;2.95;;;;;;;;;;4989635;28;20104;-63
2022/07/19 00:55:44;;;;;;;8.20;3.00;;;;;;;;;;4985502;28;20058;-64
2022/07/19 00:58:13;;;;;;;6.22;3.13;;;;;;;;;;4980806;28;20054;-63
2022/07/19 01:00:41;;;;;;;6.85;3.30;;;;;;;;;;4966699;28;20055;-63
2022/07/19 01:03:08;;;;;;;8.20;3.22;;;;;;;;;;4965472;28;20050;-62
2022/07/19 01:05:35;;;;;;;5.05;3.05;;;;;;;;;;4984896;28;20081;-63
2022/07/19 01:08:04;;;;;;;6.13;3.03;;;;;;;;;;4973578;28;20115;-62
2022/07/19 01:10:31;;;;;;;9.45;2.97;;;;;;;;;;4988729;28;20046;-62
2022/07/19 01:12:57;;;;;;;5.82;3.13;;;;;;;;;;4972979;28;20066;-63
2022/07/19 01:15:26;;;;;;;6.35;2.83;;;;;;;;;;4970529;28;20054;-63
2022/07/19 01:17:53;;;;;;;6.00;2.92;;;;;;;;;;4971306;28;20058;-63
2022/07/19 01:20:20;;;;;;;5.70;2.63;;;;;;;;;;4969962;28;20055;-63
2022/07/19 01:22:48;;;;;;;4.82;2.63;;;;;;;;;;4972259;28;20050;-63
2022/07/19 01:25:15;;;;;;;7.25;2.80;;;;;;;;;;4968180;28;20050;-63
2022/07/19 01:27:45;;;;;;;6.00;2.92;;;;;;;;;;4971987;28;20062;-63
2022/07/19 01:30:12;;;;;;;6.25;2.92;;;;;;;;;;4964019;28;20050;-62
2022/07/19 01:32:39;;;;;;;6.35;2.75;;;;;;;;;;4987640;28;20077;-63
2022/07/19 01:35:08;;;;;;;6.05;3.20;;;;;;;;;;4973430;28;20116;-62
2022/07/19 01:37:35;;;;;;;5.30;2.67;;;;;;;;;;4988983;28;20038;-63
2022/07/19 01:40:03;;;;;;;5.97;2.88;;;;;;;;;;4981070;28;20062;-62
2022/07/19 01:42:30;;;;;;;;;;;;;;;;;;4969544;28;20062;-63
2022/07/19 01:44:56;;;;;;;5.47;2.40;;;;;;;;;;4968893;28;19929;-63
2022/07/19 01:47:23;;;;;;;5.68;3.00;;;;;;;;;;4967070;28;20066;-63
2022/07/19 01:49:50;;;;;;;5.45;2.78;;;;;;;;;;4968199;28;20055;-63
2022/07/19 01:52:17;;;;;;;6.55;3.08;;;;;;;;;;4965774;28;20093;-63
2022/07/19 01:54:44;;;;;;;5.63;2.75;;;;;;;;;;4968499;28;20070;-63
2022/07/19 01:57:11;;;;;;;6.28;2.85;;;;;;;;;;4967639;28;20058;-63
2022/07/19 01:59:38;;;;;;;6.57;2.63;;;;;;;;;;4988367;28;20054;-63
2022/07/19 02:02:06;;;;;;;4.53;2.47;;;;;;;;;;4977363;28;20066;-63
2022/07/19 02:04:33;;;;;;;6.45;2.90;;;;;;;;;;4976109;28;20063;-63
2022/07/19 02:06:59;;;;;;;4.65;2.40;;;;;;;;;;4987596;28;20057;-63
2022/07/19 02:09:26;;;;;;;4.82;2.30;;;;;;;;;;4965229;28;20057;-64
2022/07/19 02:11:53;;;;;;;4.85;2.40;;;;;;;;;;4972145;28;20061;-64
2022/07/19 02:14:21;;;;;;;4.82;2.40;;;;;;;;;;4966704;28;20046;-63
2022/07/19 02:16:48;;;;;;;5.70;2.78;;;;;;;;;;4986546;28;20058;-63
2022/07/19 02:19:15;;;;;;;7.57;2.75;;;;;;;;;;4976605;28;20105;-64
2022/07/19 02:21:42;;;;;;;6.45;2.97;;;;;;;;;;5005497;28;20065;-64
2022/07/19 02:24:09;;;;;;;6.07;2.75;;;;;;;;;;5004105;28;20046;-64
2022/07/19 02:26:36;;;;;;;7.50;2.53;;;;;;;;;;4983883;28;20050;-63
2022/07/19 02:29:03;;;;;;;5.88;2.53;;;;;;;;;;4987824;28;20054;-63
2022/07/19 02:31:31;;;;;;;5.05;2.75;;;;;;;;;;4969517;28;20051;-63
2022/07/19 02:33:58;;;;;;;5.15;2.67;;;;;;;;;;4979767;28;20061;-62
2022/07/19 02:36:24;;;;;;;5.65;2.63;;;;;;;;;;4979960;28;20039;-63
2022/07/19 02:38:53;;;;;;;5.35;2.30;;;;;;;;;;4988187;28;20046;-63
2022/07/19 02:41:20;;;;;;;4.55;2.38;;;;;;;;;;4980709;28;20059;-63
2022/07/19 02:43:46;;;;;;;4.30;2.33;;;;;;;;;;4970854;28;20070;-62
2022/07/19 02:46:13;;;;;;;5.50;2.55;;;;;;;;;;4972463;28;20098;-63
2022/07/19 02:48:42;;;;;;;8.02;2.55;;;;;;;;;;4976677;28;20058;-63
2022/07/19 02:51:10;;;;;;;5.35;2.40;;;;;;;;;;4988032;28;20145;-64
2022/07/19 02:53:37;;;;;;;5.50;2.78;;;;;;;;;;4978942;28;20058;-64
2022/07/19 02:56:03;;;;;;;6.15;2.67;;;;;;;;;;4988418;28;20091;-64
2022/07/19 02:58:30;;;;;;;6.63;2.60;;;;;;;;;;4977353;28;20089;-64
2022/07/19 03:00:56;;;;;;;5.47;2.75;;;;;;;;;;4968724;28;20057;-62
2022/07/19 03:06:09;;;;;;;5.93;2.38;;;;;;;;;;4986150;28;20088;-64
2022/07/19 03:08:35;;;;;;;5.05;2.13;;;;;;;;;;4983771;28;20130;-63
2022/07/19 03:11:02;;;;;;;9.27;2.92;;;;;;;;;;4952239;28;20051;-63
2022/07/19 03:13:29;;;;;;;4.47;2.28;;;;;;;;;;4968164;28;20051;-64
2022/07/19 03:15:55;;;;;;;4.60;2.65;;;;;;;;;;4971972;28;20101;-63
2022/07/19 03:18:22;;;;;;;4.72;2.40;;;;;;;;;;4987387;28;20058;-63
2022/07/19 03:20:49;;;;;;;5.28;2.40;;;;;;;;;;4987654;28;20057;-64
2022/07/19 03:23:17;;;;;;;5.47;2.08;;;;;;;;;;4988010;28;20124;-63
2022/07/19 03:25:43;;;;;;;5.55;2.60;;;;;;;;;;4984667;28;20053;-63
2022/07/19 03:28:10;;;;;;;5.25;2.58;;;;;;;;;;4990872;28;20057;-63
2022/07/19 03:30:37;;;;;;;6.35;2.40;;;;;;;;;;5002994;28;20050;-63
2022/07/19 03:33:03;;;;;;;6.65;2.42;;;;;;;;;;4976476;28;20054;-62
2022/07/19 03:35:30;;;;;;;5.82;2.40;;;;;;;;;;4990786;28;20065;-62
2022/07/19 03:37:57;;;;;;;4.88;2.40;;;;;;;;;;4985237;28;20050;-62
2022/07/19 03:40:25;;;;;;;5.70;2.25;;;;;;;;;;4990563;28;20104;-62
2022/07/19 03:42:52;;;;;;;7.35;2.47;;;;;;;;;;4988589;28;20062;-62
2022/07/19 03:45:19;;;;;;;6.90;2.80;;;;;;;;;;4995405;28;20050;-62
2022/07/19 03:47:45;;;;;;;5.78;2.45;;;;;;;;;;4981335;28;20141;-64
2022/07/19 03:50:12;;;;;;;5.30;2.30;;;;;;;;;;4991201;28;20054;-63
2022/07/19 03:52:38;;;;;;;7.22;2.55;;;;;;;;;;4985646;28;20061;-63
2022/07/19 03:55:05;;;;;;;4.97;2.60;;;;;;;;;;4991147;28;20054;-63
2022/07/19 03:57:33;;;;;;;5.88;2.83;;;;;;;;;;4985190;28;20108;-63
2022/07/19 04:00:00;;;;;;;5.13;2.40;;;;;;;;;;4991291;28;20043;-63
2022/07/19 04:02:26;;;;;;;7.28;2.53;;;;;;;;;;4981186;28;20063;-63
2022/07/19 04:04:53;;;;;;;4.90;2.40;;;;;;;;;;4980766;28;20070;-64
2022/07/19 04:07:19;;;;;;;5.40;2.25;;;;;;;;;;4981455;28;20059;-63
2022/07/19 04:09:47;;;;;;;4.38;2.15;;;;;;;;;;4988507;28;20047;-63
2022/07/19 04:12:14;;;;;;;9.13;2.63;;;;;;;;;;4989172;28;20069;-63
2022/07/19 04:14:41;;;;;;;6.35;2.90;;;;;;;;;;4978289;28;20050;-63
2022/07/19 04:17:08;;;;;;;5.22;2.50;;;;;;;;;;4988548;28;20125;-62
2022/07/19 04:19:37;;;;;;;5.30;2.35;;;;;;;;;;4976748;28;20050;-63
2022/07/19 04:22:04;;;;;;;5.30;2.45;;;;;;;;;;4990024;28;20144;-62
2022/07/19 04:24:30;;;;;;;5.95;2.40;;;;;;;;;;4978150;28;20065;-62
2022/07/19 04:26:57;;;;;;;5.78;2.50;;;;;;;;;;4970683;28;20125;-63
2022/07/19 04:29:26;;;;;;;5.28;2.25;;;;;;;;;;4970922;28;20050;-63
2022/07/19 04:31:54;;;;;;;3.22;1.80;;;;;;;;;;4983859;28;20058;-63
2022/07/19 04:34:21;;;;;;;6.40;2.70;;;;;;;;;;4989522;28;20058;-62
2022/07/19 04:36:49;;;;;;;5.50;2.42;;;;;;;;;;4982766;28;20116;-62
2022/07/19 04:39:16;;;;;;;4.45;2.20;;;;;;;;;;4989777;28;20042;-64
2022/07/19 04:41:43;;;;;;;4.50;2.30;;;;;;;;;;4978197;28;20055;-64
2022/07/19 04:44:09;;;;;;;5.05;2.40;;;;;;;;;;4970163;28;20061;-64
2022/07/19 04:46:36;;;;;;;4.10;2.33;;;;;;;;;;4966528;28;20069;-64
2022/07/19 04:49:04;;;;;;;11.18;5.20;;;;;;;;;;4979813;28;20057;-64
2022/07/19 04:51:31;;;;;;;4.70;2.75;;;;;;;;;;4980441;28;20062;-63
2022/07/19 04:53:57;;;;;;;4.28;2.50;;;;;;;;;;4972859;28;20111;-64
2022/07/19 04:56:24;;;;;;;6.75;2.40;;;;;;;;;;4977758;28;20068;-64
2022/07/19 04:58:50;;;;;;;5.85;2.70;;;;;;;;;;4972863;28;20121;-64
2022/07/19 05:01:17;;;;;;;4.40;2.17;;;;;;;;;;4983194;28;20054;-63
2022/07/19 05:03:44;;;;;;;5.75;2.80;;;;;;;;;;4966426;28;20047;-64
2022/07/19 05:06:12;;;;;;;5.28;2.40;;;;;;;;;;4944830;28;20059;-63
2022/07/19 05:08:38;;;;;;;11.07;3.35;;;;;;;;;;4944320;28;20058;-64
2022/07/19 05:11:06;;;;;;;5.65;2.30;;;;;;;;;;4947353;28;20043;-63
2022/07/19 05:13:32;;;;;;;4.60;2.33;;;;;;;;;;4965823;28;20060;-64
2022/07/19 05:15:59;;;;;;;5.55;2.60;;;;;;;;;;4938756;28;20062;-63
2022/07/19 05:18:25;;;;;;;9.55;5.38;;;;;;;;;;4947002;28;20055;-64
2022/07/19 05:20:52;;;;;;;6.90;3.75;;;;;;;;;;4939889;28;20055;-63
2022/07/19 05:23:20;;;;;;;4.45;2.30;;;;;;;;;;4943591;28;20085;-63
2022/07/19 05:25:46;;;;;;;11.70;3.58;;;;;;;;;;4945098;28;20078;-63
2022/07/19 05:28:14;;;;;;;8.35;2.30;;;;;;;;;;4948748;28;20162;-63
2022/07/19 05:30:41;;;;;;;4.37;2.23;;;;;;;;;;4940199;28;20055;-63
2022/07/19 05:33:07;;;;;;;6.28;2.20;;;;;;;;;;4947959;28;20050;-63
2022/07/19 05:35:34;;;;;;;8.32;3.30;;;;;;;;;;4946586;28;20054;-64
2022/07/19 05:38:01;;;;;;;14.82;4.30;;;;;;;;;;4953179;28;20054;-63
2022/07/19 05:40:29;;;;;;;8.13;3.63;;;;;;;;;;4953161;28;20042;-63
2022/07/19 05:42:55;;;;;;;20.27;5.47;;;;;;;;;;4964012;28;20057;-63
2022/07/19 05:45:22;;;;;;;5.85;2.92;;;;;;;;;;4972360;28;20048;-64
2022/07/19 05:47:49;;;;;;;9.75;3.78;;;;;;;;;;4950471;28;20054;-64
2022/07/19 05:50:15;;;;;;;8.13;2.63;;;;;;;;;;4953420;28;20058;-64
2022/07/19 05:52:42;;;;;;;6.35;2.47;;;;;;;;;;4936194;28;20059;-64
2022/07/19 05:55:09;;;;;;;6.38;2.40;;;;;;;;;;4950923;28;20051;-63
2022/07/19 05:57:39;;;;;;;6.82;2.30;;;;;;;;;;4939268;28;20055;-63
2022/07/19 06:00:06;;;;;;;8.13;2.42;;;;;;;;;;4953470;28;20062;-64
2022/07/19 06:02:33;;;;;;;5.50;2.28;;;;;;;;;;4952826;28;20047;-62
2022/07/19 06:04:59;;;;;;;5.03;2.05;;;;;;;;;;4958019;28;20062;-62
2022/07/19 06:07:26;;;;;;;7.00;2.53;;;;;;;;;;4977695;28;20050;-63
2022/07/19 06:09:52;;;;;;;9.07;2.70;;;;;;;;;;4977014;28;20054;-63
2022/07/19 06:12:19;;;;;;;9.23;3.08;;;;;;;;;;4985977;28;20058;-63
2022/07/19 06:14:47;;;;;;;13.07;3.90;;;;;;;;;;4982366;28;20066;-63
2022/07/19 06:17:14;;;;;;;6.13;2.45;;;;;;;;;;4986116;28;20062;-63
2022/07/19 06:19:43;;;;;;;9.23;2.72;;;;;;;;;;4971244;28;20070;-63
2022/07/19 06:22:12;;;;;;;6.25;2.95;;;;;;;;;;4988021;28;20046;-63
2022/07/19 06:24:39;;;;;;;5.90;2.22;;;;;;;;;;4976910;28;20055;-63
2022/07/19 06:27:06;;;;;;;15.82;2.63;;;;;;;;;;4956076;28;20200;-63
2022/07/19 06:29:32;;;;;;;6.50;2.50;;;;;;;;;;4965150;28;20070;-63
2022/07/19 06:32:00;;;;;;;5.68;2.53;;;;;;;;;;4979435;28;20101;-62
2022/07/19 06:34:27;;;;;;;3.78;2.10;;;;;;;;;;4988592;28;20047;-64
2022/07/19 06:36:55;;;;;;;4.05;2.00;;;;;;;;;;4980481;28;20054;-64
2022/07/19 06:39:22;;;;;;;;;;;;;;;;;;4988705;28;20046;-63
2022/07/19 06:41:48;;;;;;;10.00;2.95;;;;;;;;;;4979791;28;19932;-64
2022/07/19 06:44:15;;;;;;;9.88;3.10;;;;;;;;;;4989052;28;20042;-64
2022/07/19 06:46:42;;;;;;;10.27;2.85;;;;;;;;;;4979641;28;20051;-64
2022/07/19 06:49:10;;;;;;;8.30;2.75;;;;;;;;;;4971439;28;20073;-64
2022/07/19 06:51:36;;;;;;;6.53;2.72;;;;;;;;;;4969329;28;20062;-64
2022/07/19 06:54:03;;;;;;;6.05;2.50;;;;;;;;;;4967846;28;20054;-64
2022/07/19 06:56:30;;;;;;;5.65;2.28;;;;;;;;;;4971830;28;20157;-64
2022/07/19 06:58:56;;;;;;;7.57;2.72;;;;;;;;;;4961793;28;20055;-64
2022/07/19 07:04:01;;;;;;;13.98;2.80;;;;;;;;;;5085402;23;20140;-64
2022/07/19 07:06:29;;;;;;;6.72;2.60;;;;;;;;;;4994375;28;20072;-64
2022/07/19 07:08:56;;;;;;;6.93;2.83;;;;;;;;;;4978093;28;20060;-64
2022/07/19 07:11:22;;;;;;;8.95;3.20;;;;;;;;;;4974848;28;20051;-64
2022/07/19 07:13:49;;;;;;;8.40;3.70;;;;;;;;;;4975110;28;20112;-65
2022/07/19 07:16:16;;;;;;;5.70;2.55;;;;;;;;;;4989022;28;20278;-64
2022/07/19 07:18:43;;;;;;;7.95;2.90;;;;;;;;;;4981625;28;20050;-64
2022/07/19 07:21:09;;;;;;;7.00;2.38;;;;;;;;;;4983371;28;20046;-64
2022/07/19 07:23:37;;;;;;;6.47;3.08;;;;;;;;;;4994405;28;20053;-64
2022/07/19 07:26:04;;;;;;;9.02;3.10;;;;;;;;;;4989288;28;20054;-64
2022/07/19 07:28:30;;;;;;;6.22;2.40;;;;;;;;;;4993702;28;20141;-64
2022/07/19 07:30:57;;;;;;;5.45;2.45;;;;;;;;;;4989088;28;20060;-63
2022/07/19 07:33:24;;;;;;;11.65;2.83;;;;;;;;;;4987206;28;20060;-64
2022/07/19 07:35:51;;;;;;;12.80;2.40;;;;;;;;;;4987889;28;20118;-64
2022/07/19 07:38:17;;;;;;;7.95;3.03;;;;;;;;;;4993817;28;20053;-64
2022/07/19 07:40:46;;;;;;;9.88;3.35;;;;;;;;;;4989532;28;20042;-63
2022/07/19 07:43:13;;;;;;;9.07;3.75;;;;;;;;;;4994004;28;20074;-63
2022/07/19 07:45:39;;;;;;;9.48;3.13;;;;;;;;;;4991384;28;20148;-63
2022/07/19 07:48:06;;;;;;;5.45;2.70;;;;;;;;;;4991070;28;20109;-64
2022/07/19 07:50:32;;;;;;;7.30;2.90;;;;;;;;;;4993751;28;20161;-64
2022/07/19 07:52:59;;;;;;;13.63;3.10;;;;;;;;;;4988996;28;20203;-64
2022/07/19 07:55:26;;;;;;;6.82;2.20;;;;;;;;;;4983965;28;20058;-64
2022/07/19 07:57:54;;;;;;;7.88;2.63;;;;;;;;;;4975687;28;20042;-64
2022/07/19 08:00:20;;;;;;;6.65;2.70;;;;;;;;;;4973228;28;20124;-64
2022/07/19 08:02:48;;;;;;;10.95;3.25;;;;;;;;;;4982475;28;20057;-64
2022/07/19 08:05:15;;;;;;;7.97;2.83;;;;;;;;;;4989997;28;20048;-64
2022/07/19 08:07:42;;;;;;;13.35;3.20;;;;;;;;;;4986139;28;20076;-64
2022/07/19 08:10:10;;;;;;;5.60;2.70;;;;;;;;;;4991546;28;20136;-64
2022/07/19 08:12:36;;;;;;;9.80;3.20;;;;;;;;;;4987669;28;20065;-64
2022/07/19 08:15:05;;;;;;;10.05;3.40;;;;;;;;;;4993245;28;20049;-63
2022/07/19 08:17:31;;;;;;;5.32;2.50;;;;;;;;;;4991930;28;20139;-63
2022/07/19 08:19:58;;;;;;;6.38;2.85;;;;;;;;;;4982835;28;20062;-64
2022/07/19 08:22:25;;;;;;;6.30;2.47;;;;;;;;;;4973598;28;20062;-63
2022/07/19 08:24:51;;;;;;;8.02;2.55;;;;;;;;;;4979787;28;20038;-62
2022/07/19 08:27:18;;;;;;;8.50;2.70;;;;;;;;;;5009724;28;20093;-63
2022/07/19 08:29:45;;;;;;;8.95;2.75;;;;;;;;;;5003720;28;20050;-63
2022/07/19 08:32:13;;;;;;;6.65;2.40;;;;;;;;;;4993212;28;20068;-64
2022/07/19 08:34:39;;;;;;;9.25;2.72;;;;;;;;;;4990145;28;20266;-63
2022/07/19 08:37:06;;;;;;;8.25;3.40;;;;;;;;;;4990136;28;20057;-64
2022/07/19 08:39:32;;;;;;;9.55;2.85;;;;;;;;;;4993571;28;20065;-64
2022/07/19 08:41:59;;;;;;;6.68;2.40;;;;;;;;;;4988862;28;20160;-63
2022/07/19 08:44:29;;;;;;;9.55;3.10;;;;;;;;;;5010749;28;20069;-64
2022/07/19 08:46:56;;;;;;;9.57;2.53;;;;;;;;;;4985142;28;20105;-65
2022/07/19 08:49:24;;;;;;;8.98;2.95;;;;;;;;;;5008589;28;20057;-62
2022/07/19 08:51:52;;;;;;;10.10;2.92;;;;;;;;;;5003488;28;20066;-64
2022/07/19 08:54:19;;;;;;;6.97;2.22;;;;;;;;;;4992134;28;20061;-63
2022/07/19 08:59:30;;;;;;;8.45;2.45;;;;;;;;;;4989253;28;20054;-64
2022/07/19 09:01:57;;;;;;;6.72;2.88;;;;;;;;;;4992362;28;20119;-63
2022/07/19 09:04:27;;;;;;;6.65;2.30;;;;;;;;;;4981273;28;20045;-64
2022/07/19 09:06:55;;;;;;;5.40;2.30;;;;;;;;;;4992127;28;20065;-63
2022/07/19 09:09:22;;;;;;;7.25;2.20;;;;;;;;;;4981522;28;20111;-64
2022/07/19 09:11:50;;;;;;;5.55;2.30;;;;;;;;;;4974864;28;20053;-64
2022/07/19 09:14:18;;;;;;;6.57;2.70;;;;;;;;;;4985085;28;20050;-64
2022/07/19 09:16:52;;;;;;;5.37;1.90;;;;;;;;;;4992119;28;20089;-63
2022/07/19 09:19:19;;;;;;;6.22;2.05;;;;;;;;;;5008417;28;20073;-63
2022/07/19 09:21:54;;;;;;;5.68;2.45;;;;;;;;;;5002172;28;20057;-63
2022/07/19 09:24:21;;;;;;;14.13;3.00;;;;;;;;;;4991609;28;20053;-64
2022/07/19 09:27:01;;;;;;;9.48;2.45;;;;;;;;;;4985860;28;20084;-64
2022/07/19 09:29:28;;;;;;;5.72;2.70;;;;;;;;;;4989299;28;20108;-63
2022/07/19 09:31:58;;;;;;;4.78;2.45;;;;;;;;;;4984852;28;20106;-64
2022/07/19 09:34:28;;;;;;;6.50;2.40;;;;;;;;;;4991638;28;20042;-63
2022/07/19 09:37:09;;;;;;;7.53;2.50;;;;;;;;;;5001600;28;20054;-64
2022/07/19 09:39:35;;;;;;;4.57;2.03;;;;;;;;;;5007286;28;20070;-64
2022/07/19 09:42:03;;;;;;;10.43;2.40;;;;;;;;;;5004275;28;20062;-65
2022/07/19 09:44:29;;;;;;;5.93;2.40;;;;;;;;;;4989133;28;20133;-64
2022/07/19 09:46:56;;;;;;;7.57;2.15;;;;;;;;;;4991382;28;20050;-63
2022/07/19 09:49:24;;;;;;;7.78;1.95;;;;;;;;;;4985604;28;20050;-65
2022/07/19 09:51:52;;;;;;;7.10;2.20;;;;;;;;;;4990914;28;20148;-64
2022/07/19 09:54:21;;;;;;;6.63;2.20;;;;;;;;;;4985396;28;20054;-64
2022/07/19 09:56:49;;;;;;;6.72;2.20;;;;;;;;;;4991634;28;20050;-65
2022/07/19 09:59:18;;;;;;;7.20;2.10;;;;;;;;;;4985674;28;20359;-64
2022/07/19 10:01:45;;;;;;;5.30;2.20;;;;;;;;;;4992382;28;20050;-65
2022/07/19 10:04:12;;;;;;;6.05;2.40;;;;;;;;;;4989191;28;20050;-64
2022/07/19 10:06:40;;;;;;;6.40;2.28;;;;;;;;;;4980136;28;20069;-64
2022/07/19 10:09:08;;;;;;;7.35;2.30;;;;;;;;;;4988109;28;20077;-64
2022/07/19 10:11:36;;;;;;;5.68;2.00;;;;;;;;;;4981540;28;20050;-65
2022/07/19 10:14:03;;;;;;;;;;;;;;;;;;4988538;28;20058;-64
2022/07/19 10:16:45;;;;;;;6.65;2.10;;;;;;;;;;4998514;28;20028;-64
2022/07/19 10:19:16;;;;;;;7.57;2.20;;;;;;;;;;4987526;28;20042;-64
2022/07/19 10:21:43;;;;;;;5.30;2.17;;;;;;;;;;4969567;28;20061;-64
2022/07/19 10:24:10;;;;;;;6.63;2.47;;;;;;;;;;5004437;28;20050;-64
2022/07/19 10:26:38;;;;;;;5.28;1.95;;;;;;;;;;4981321;28;20061;-65
2022/07/19 10:29:09;;;;;;;3.60;1.80;;;;;;;;;;4968313;28;20046;-65
2022/07/19 10:31:36;;;;;;;9.65;2.03;;;;;;;;;;4964248;28;20073;-64
2022/07/19 10:34:04;;;;;;;5.50;2.30;;;;;;;;;;4975708;28;20042;-65
2022/07/19 10:36:35;;;;;;;8.30;2.17;;;;;;;;;;4968662;28;20051;-64
2022/07/19 10:39:21;;;;;;;3.65;1.90;;;;;;;;;;4970552;28;20058;-65
2022/07/19 10:42:08;;;;;;;3.55;1.63;;;;;;;;;;4992025;28;20054;-64
2022/07/19 10:44:35;;;;;;;8.93;2.60;;;;;;;;;;4971588;28;20070;-64
2022/07/19 10:47:02;;;;;;;8.02;2.40;;;;;;;;;;4972094;28;20051;-64
2022/07/19 10:49:46;;;;;;;7.93;2.47;;;;;;;;;;4985085;28;20054;-64
2022/07/19 10:52:31;;;;;;;6.82;2.17;;;;;;;;;;4991138;28;20057;-64
2022/07/19 10:55:12;;;;;;;6.15;2.00;;;;;;;;;;4971981;28;20051;-64
2022/07/19 10:57:41;;;;;;;5.43;1.90;;;;;;;;;;4966252;28;20069;-64
2022/07/19 11:00:16;;;;;;;11.68;2.60;;;;;;;;;;4971483;28;20054;-63
2022/07/19 11:02:43;;;;;;;6.32;2.47;;;;;;;;;;4976446;28;20129;-64
2022/07/19 11:05:21;;;;;;;11.18;2.40;;;;;;;;;;4984061;28;20101;-63
2022/07/19 11:07:48;;;;;;;5.68;2.15;;;;;;;;;;4991011;28;20067;-63
2022/07/19 11:10:21;;;;;;;8.57;1.90;;;;;;;;;;4968286;28;20050;-63
2022/07/19 11:12:49;;;;;;;8.50;2.55;;;;;;;;;;4971469;28;20057;-63
2022/07/19 11:15:16;;;;;;;7.55;2.20;;;;;;;;;;4982868;28;20054;-63
2022/07/19 11:17:54;;;;;;;6.88;2.40;;;;;;;;;;5006893;28;20061;-64
2022/07/19 11:20:20;;;;;;;;;;;;;;;;;;4994436;28;20121;-64
2022/07/19 11:22:48;;;;;;;9.43;2.40;;;;;;;;;;4971412;28;19933;-63
2022/07/19 11:25:16;;;;;;;5.82;1.85;;;;;;;;;;4978936;28;20074;-63
2022/07/19 11:27:43;;;;;;;7.55;2.08;;;;;;;;;;4990629;28;20050;-64
2022/07/19 11:30:12;;;;;;;5.32;2.20;;;;;;;;;;4974298;28;20061;-64
2022/07/19 11:32:41;;;;;;;7.05;2.08;;;;;;;;;;4986929;28;20047;-63
2022/07/19 11:35:09;;;;;;;6.80;2.05;;;;;;;;;;4973474;28;20114;-64
2022/07/19 11:37:36;;;;;;;4.15;2.05;;;;;;;;;;5006744;28;20061;-64
2022/07/19 11:40:04;;;;;;;81.60;3.75;;;;;;;;;;4985189;28;20050;-64
2022/07/19 11:42:32;;;;;;;11.60;2.15;;;;;;;;;;4990476;28;20093;-64
2022/07/19 11:44:59;;;;;;;5.38;1.95;;;;;;;;;;4980166;28;20038;-64
2022/07/19 11:47:27;;;;;;;5.43;2.00;;;;;;;;;;4987638;28;20135;-64
2022/07/19 11:49:54;;;;;;;6.30;2.05;;;;;;;;;;4965927;28;20088;-64
2022/07/19 11:52:20;;;;;;;4.43;2.03;;;;;;;;;;4970205;28;20073;-64
2022/07/19 11:55:00;;;;;;;3.80;1.80;;;;;;;;;;4968185;28;20062;-64
2022/07/19 11:57:27;;;;;;;6.68;2.33;;;;;;;;;;4990803;28;20073;-65
2022/07/19 11:59:53;;;;;;;3.13;1.80;;;;;;;;;;4989949;28;20062;-65
2022/07/19 12:02:20;;;;;;;5.55;2.00;;;;;;;;;;4967549;28;20069;-65
2022/07/19 12:04:51;;;;;;;5.05;1.90;;;;;;;;;;4980680;28;20061;-63
2022/07/19 12:07:19;;;;;;;4.07;1.83;;;;;;;;;;4988051;28;20062;-64
2022/07/19 12:09:46;;;;;;;5.40;1.70;;;;;;;;;;4982464;28;20129;-64
2022/07/19 12:12:13;;;;;;;5.15;1.58;;;;;;;;;;4985525;28;20069;-64
2022/07/19 12:14:40;;;;;;;3.70;1.67;;;;;;;;;;4993257;28;20065;-64
2022/07/19 12:17:10;;;;;;;6.88;1.77;;;;;;;;;;4986818;28;20123;-63
2022/07/19 12:19:37;;;;;;;4.68;1.77;;;;;;;;;;4992806;28;20058;-63
2022/07/19 12:22:06;;;;;;;4.65;2.05;;;;;;;;;;4974354;28;20065;-64
2022/07/19 12:24:33;;;;;;;3.72;1.60;;;;;;;;;;4993167;28;20046;-64
2022/07/19 12:27:01;;;;;;;7.80;1.70;;;;;;;;;;4993614;28;20057;-64
2022/07/19 12:29:29;;;;;;;9.40;1.63;;;;;;;;;;5002940;28;20077;-64
2022/07/19 12:31:58;;;;;;;7.72;1.70;;;;;;;;;;5011374;28;20053;-64
2022/07/19 12:34:24;;;;;;;4.68;1.50;;;;;;;;;;4986205;28;20071;-64
2022/07/19 12:36:51;;;;;;;3.20;1.92;;;;;;;;;;5008887;28;20073;-64
2022/07/19 12:39:25;;;;;;;9.73;1.85;;;;;;;;;;5002864;28;20054;-64
2022/07/19 12:41:58;;;;;;;2.92;1.63;;;;;;;;;;4992686;28;20058;-65
2022/07/19 12:44:25;;;;;;;8.45;1.90;;;;;;;;;;5004914;28;20060;-65
2022/07/19 12:46:52;;;;;;;4.40;1.80;;;;;;;;;;4991850;28;20077;-64
2022/07/19 12:49:19;;;;;;;2.70;1.67;;;;;;;;;;4992423;28;20045;-64
2022/07/19 12:51:45;;;;;;;5.03;1.77;;;;;;;;;;5003022;28;20041;-64
2022/07/19 12:54:12;;;;;;;2.97;1.80;;;;;;;;;;4992917;28;20060;-64
2022/07/19 12:56:40;;;;;;;3.97;1.88;;;;;;;;;;4987060;28;20046;-64
2022/07/19 13:01:51;;;;;;;3.80;1.60;;;;;;;;;;4986465;28;20061;-63
2022/07/19 13:04:18;;;;;;;5.60;2.13;;;;;;;;;;4989836;28;20141;-64
2022/07/19 13:06:45;;;;;;;4.20;1.70;;;;;;;;;;4984704;28;20129;-64
2022/07/19 13:09:14;;;;;;;4.00;1.75;;;;;;;;;;4987399;28;20321;-64
2022/07/19 13:11:42;;;;;;;4.03;2.00;;;;;;;;;;4981198;28;20065;-64
2022/07/19 13:14:11;;;;;;;5.03;1.83;;;;;;;;;;4977772;28;20050;-63
2022/07/19 13:16:38;;;;;;;8.52;2.97;;;;;;;;;;4987474;28;20050;-64
2022/07/19 13:19:04;;;;;;;9.23;1.87;;;;;;;;;;4973200;28;20057;-64
2022/07/19 13:21:31;;;;;;;6.63;2.03;;;;;;;;;;4986305;28;20054;-63
2022/07/19 13:23:58;;;;;;;2.80;1.70;;;;;;;;;;4979652;28;20035;-63
2022/07/19 13:26:24;;;;;;;6.95;1.77;;;;;;;;;;4969467;28;20057;-64
2022/07/19 13:28:52;;;;;;;5.45;2.03;;;;;;;;;;4965859;28;20085;-63
2022/07/19 13:31:19;;;;;;;4.68;1.70;;;;;;;;;;4969484;28;20046;-64
2022/07/19 13:33:45;;;;;;;8.43;2.10;;;;;;;;;;4964979;28;20046;-64
2022/07/19 13:36:12;;;;;;;8.13;1.85;;;;;;;;;;4967898;28;20043;-64
2022/07/19 13:38:41;;;;;;;3.05;1.55;;;;;;;;;;4969442;28;20055;-64
2022/07/19 13:41:09;;;;;;;5.50;1.98;;;;;;;;;;4980491;28;20078;-64
2022/07/19 13:43:35;;;;;;;4.63;1.92;;;;;;;;;;4987942;28;20124;-64
2022/07/19 13:46:03;;;;;;;6.13;2.22;;;;;;;;;;4982350;28;20050;-63
2022/07/19 13:48:30;;;;;;;5.82;1.60;;;;;;;;;;4988520;28;20061;-64
2022/07/19 13:50:56;;;;;;;8.90;2.08;;;;;;;;;;4970370;28;20055;-64
2022/07/19 13:53:23;;;;;;;5.47;2.03;;;;;;;;;;4970462;28;20054;-64
2022/07/19 13:55:50;;;;;;;3.50;1.70;;;;;;;;;;4981143;28;20054;-63
2022/07/19 13:58:18;;;;;;;4.47;1.75;;;;;;;;;;4969858;28;20058;-64
2022/07/19 14:00:46;;;;;;;2.35;1.42;;;;;;;;;;4971351;28;20126;-64
2022/07/19 14:03:14;;;;;;;5.28;1.70;;;;;;;;;;4997815;28;20061;-64
2022/07/19 14:05:41;;;;;;;4.88;1.73;;;;;;;;;;4995558;28;20270;-64
2022/07/19 14:08:08;;;;;;;2.07;1.50;;;;;;;;;;4982444;28;20160;-64
2022/07/19 14:10:34;;;;;;;3.55;1.58;;;;;;;;;;4974164;28;20389;-63
2022/07/19 14:13:01;;;;;;;4.43;1.65;;;;;;;;;;4991161;28;20053;-63
2022/07/19 14:15:28;;;;;;;3.35;1.50;;;;;;;;;;4986035;28;20052;-63
2022/07/19 14:17:55;;;;;;;5.15;1.70;;;;;;;;;;4971698;28;20101;-64
2022/07/19 14:20:22;;;;;;;5.40;2.30;;;;;;;;;;4995548;28;20069;-64
2022/07/19 14:22:49;;;;;;;3.20;1.70;;;;;;;;;;4967261;28;20297;-64
2022/07/19 14:25:16;;;;;;;8.73;2.00;;;;;;;;;;4970890;28;20077;-63
2022/07/19 14:27:43;;;;;;;4.60;1.88;;;;;;;;;;4991191;28;20120;-63
2022/07/19 14:30:10;;;;;;;4.40;1.70;;;;;;;;;;4982718;28;20072;-65
2022/07/19 14:32:36;;;;;;;2.95;1.90;;;;;;;;;;4982561;28;20056;-63
2022/07/19 14:35:03;;;;;;;4.78;1.75;;;;;;;;;;4971790;28;20050;-63
2022/07/19 14:37:31;;;;;;;4.17;1.90;;;;;;;;;;4967037;28;20046;-64
2022/07/19 14:39:57;;;;;;;2.88;1.67;;;;;;;;;;4971649;28;20070;-64
2022/07/19 14:42:24;;;;;;;4.85;1.80;;;;;;;;;;4966468;28;20061;-63
2022/07/19 14:44:51;;;;;;;9.95;2.13;;;;;;;;;;4971771;28;20084;-64
2022/07/19 14:47:17;;;;;;;2.80;1.67;;;;;;;;;;4989752;28;20049;-63
2022/07/19 14:49:44;;;;;;;3.85;1.80;;;;;;;;;;4981402;28;20050;-63
2022/07/19 14:52:11;;;;;;;3.88;1.80;;;;;;;;;;4985565;28;20054;-64
2022/07/19 14:54:39;;;;;;;6.55;1.88;;;;;;;;;;4990800;28;20058;-64
2022/07/19 14:57:05;;;;;;;3.65;1.75;;;;;;;;;;4984789;28;20061;-64